createdAt,value
2022-09-18T00:00:58.029Z,83.96
2022-09-18T00:03:25.016Z,83.73
2022-09-18T00:05:51.646Z,83.78
2022-09-18T00:08:18.152Z,84.14
2022-09-18T00:10:46.769Z,84.09
2022-09-18T00:13:15.090Z,83.64
2022-09-18T00:15:42.089Z,83.66
2022-09-18T00:18:09.696Z,83.76
2022-09-18T00:20:37.649Z,83.98
2022-09-18T00:23:04.320Z,84.10
2022-09-18T00:25:32.136Z,84.22
2022-09-18T00:27:58.746Z,84.60
2022-09-18T00:30:25.282Z,84.50
2022-09-18T00:32:51.870Z,84.43
2022-09-18T00:35:18.451Z,84.76
2022-09-18T00:37:45.029Z,85.52
2022-09-18T00:40:11.661Z,85.63
2022-09-18T00:42:38.356Z,85.76
2022-09-18T00:45:05.583Z,86.51
2022-09-18T00:47:35.410Z,86.05
2022-09-18T00:50:13.328Z,86.51
2022-09-18T00:52:54.660Z,87.51
2022-09-18T00:55:26.665Z,86.81
2022-09-18T00:57:56.474Z,87.67
2022-09-18T01:00:24.023Z,87.05
2022-09-18T01:02:50.988Z,87.06
2022-09-18T01:05:31.957Z,87.58
2022-09-18T01:08:26.163Z,87.81
2022-09-18T01:11:13.166Z,88.18
2022-09-18T01:14:04.414Z,88.14
2022-09-18T01:16:50.976Z,87.74
2022-09-18T01:19:34.717Z,87.18
2022-09-18T01:22:36.695Z,88.07
2022-09-18T01:25:47.625Z,88.34
2022-09-18T01:28:20.974Z,88.55
2022-09-18T01:30:50.763Z,89.27
2022-09-18T01:33:54.105Z,89.26
2022-09-18T01:36:24.869Z,88.81
2022-09-18T01:39:00.930Z,88.81
2022-09-18T01:41:29.974Z,88.78
2022-09-18T01:44:05.931Z,89.24
2022-09-18T01:46:34.261Z,89.25
2022-09-18T01:49:08.538Z,88.99
2022-09-18T01:52:00.622Z,88.85
2022-09-18T01:54:33.664Z,88.88
2022-09-18T01:57:12.857Z,88.72
2022-09-18T01:59:44.850Z,88.96
2022-09-18T02:02:17.545Z,89.04
2022-09-18T02:04:47.521Z,89.23
2022-09-18T02:07:23.457Z,89.08
2022-09-18T02:09:50.101Z,88.96
2022-09-18T02:12:21.805Z,89.67
2022-09-18T02:14:53.196Z,90.66
2022-09-18T02:17:32.949Z,91.96
2022-09-18T02:20:06.669Z,92.33
2022-09-18T02:22:34.893Z,93.43
2022-09-18T02:25:04.970Z,93.59
2022-09-18T02:27:34.317Z,93.68
2022-09-18T02:30:03.411Z,93.60
2022-09-18T02:32:30.083Z,93.64
2022-09-18T02:34:57.111Z,94.22
2022-09-18T02:37:58.127Z,94.24
2022-09-18T02:40:31.622Z,94.32
2022-09-18T02:43:27.335Z,95.08
2022-09-18T02:46:23.753Z,94.46
2022-09-18T02:49:14.746Z,94.67
2022-09-18T02:51:52.880Z,94.02
2022-09-18T02:54:24.376Z,93.69
2022-09-18T02:56:57.019Z,93.74
2022-09-18T02:59:28.632Z,94.18
2022-09-18T03:01:56.884Z,94.26
2022-09-18T03:04:26.209Z,94.17
2022-09-18T03:06:53.557Z,94.51
2022-09-18T03:09:20.732Z,94.50
2022-09-18T03:11:47.332Z,94.86
2022-09-18T03:14:13.975Z,94.57
2022-09-18T03:16:40.485Z,94.72
2022-09-18T03:19:07.259Z,94.85
2022-09-18T03:21:33.797Z,94.67
2022-09-18T03:24:00.503Z,94.60
2022-09-18T03:26:27.179Z,95.13
2022-09-18T03:28:53.821Z,95.42
2022-09-18T03:31:20.574Z,95.52
2022-09-18T03:33:47.201Z,95.34
2022-09-18T03:36:13.841Z,95.32
2022-09-18T03:38:41.715Z,95.92
2022-09-18T03:41:08.750Z,95.81
2022-09-18T03:43:35.672Z,95.79
2022-09-18T03:46:02.370Z,95.47
2022-09-18T03:48:28.973Z,95.86
2022-09-18T03:50:55.648Z,95.75
2022-09-18T03:53:22.274Z,95.77
2022-09-18T03:55:50.464Z,95.57
2022-09-18T03:58:17.061Z,95.60
2022-09-18T04:00:43.738Z,95.39
2022-09-18T04:03:10.410Z,95.64
2022-09-18T04:05:36.966Z,95.41
2022-09-18T04:08:05.276Z,95.24
2022-09-18T04:10:32.899Z,95.32
2022-09-18T04:12:59.469Z,95.53
2022-09-18T04:15:27.508Z,95.72
2022-09-18T04:17:54.100Z,95.52
2022-09-18T04:20:20.818Z,95.68
2022-09-18T04:22:47.345Z,95.77
2022-09-18T04:25:13.994Z,96.21
2022-09-18T04:27:40.505Z,96.32
2022-09-18T04:30:07.630Z,96.81
2022-09-18T04:32:34.223Z,97.56
2022-09-18T04:35:00.811Z,96.76
2022-09-18T04:37:30.052Z,96.10
2022-09-18T04:39:57.234Z,96.44
2022-09-18T04:42:23.836Z,97.22
2022-09-18T04:44:50.658Z,97.92
2022-09-18T04:47:17.237Z,98.56
2022-09-18T04:49:43.767Z,98.48
2022-09-18T04:52:10.714Z,99.15
2022-09-18T04:54:38.091Z,99.00
2022-09-18T04:57:04.804Z,98.92
2022-09-18T04:59:31.431Z,98.05
2022-09-18T05:01:59.119Z,97.69
2022-09-18T05:04:25.721Z,97.51
2022-09-18T05:06:52.270Z,96.97
2022-09-18T05:09:18.893Z,97.22
2022-09-18T05:11:45.489Z,97.17
2022-09-18T05:14:12.033Z,97.06
2022-09-18T05:16:38.913Z,97.57
2022-09-18T05:19:05.730Z,97.88
2022-09-18T05:21:32.243Z,97.73
2022-09-18T05:23:58.799Z,97.19
2022-09-18T05:26:26.827Z,97.67
2022-09-18T05:28:53.340Z,97.28
2022-09-18T05:31:19.965Z,96.87
2022-09-18T05:33:46.581Z,97.18
2022-09-18T05:36:13.143Z,97.78
2022-09-18T05:38:39.808Z,97.12
2022-09-18T05:41:06.859Z,97.02
2022-09-18T05:43:33.390Z,96.85
2022-09-18T05:46:02.154Z,96.99
2022-09-18T05:48:28.755Z,96.81
2022-09-18T05:50:56.669Z,96.46
2022-09-18T05:53:23.214Z,95.39
2022-09-18T05:55:49.781Z,95.60
2022-09-18T05:58:18.462Z,95.66
2022-09-18T06:00:46.165Z,95.49
2022-09-18T06:03:15.014Z,95.68
2022-09-18T06:05:42.760Z,93.84
2022-09-18T06:08:11.202Z,94.93
2022-09-18T06:10:39.489Z,94.61
2022-09-18T06:13:15.458Z,94.71
2022-09-18T06:15:52.326Z,93.30
2022-09-18T06:18:19.158Z,93.00
2022-09-18T06:20:53.609Z,93.41
2022-09-18T06:23:20.594Z,93.13
2022-09-18T06:25:47.211Z,92.41
2022-09-18T06:28:13.719Z,92.71
2022-09-18T06:30:40.293Z,92.79
2022-09-18T06:33:09.280Z,93.95
2022-09-18T06:35:38.435Z,94.96
2022-09-18T06:38:06.780Z,96.58
2022-09-18T06:40:34.619Z,96.95
2022-09-18T06:43:02.703Z,96.49
2022-09-18T06:45:31.068Z,97.14
2022-09-18T06:48:04.786Z,97.54
2022-09-18T06:50:31.889Z,98.03
2022-09-18T06:53:11.481Z,97.60
2022-09-18T06:55:39.146Z,98.24
2022-09-18T06:58:05.715Z,98.70
2022-09-18T07:00:32.360Z,98.53
2022-09-18T07:03:01.485Z,98.44
2022-09-18T07:05:31.089Z,98.35
2022-09-18T07:07:57.611Z,98.72
2022-09-18T07:10:24.869Z,99.44
2022-09-18T07:12:58.408Z,98.61
2022-09-18T07:15:26.489Z,98.07
2022-09-18T07:17:57.023Z,97.41
2022-09-18T07:20:23.597Z,97.64
2022-09-18T07:23:01.454Z,97.95
2022-09-18T07:25:31.427Z,97.22
2022-09-18T07:28:10.713Z,97.66
2022-09-18T07:30:38.540Z,98.23
2022-09-18T07:33:06.884Z,97.65
2022-09-18T07:35:34.279Z,97.49
2022-09-18T07:38:02.495Z,97.85
2022-09-18T07:40:29.805Z,96.74
2022-09-18T07:43:01.034Z,97.12
2022-09-18T07:45:27.911Z,96.41
2022-09-18T07:47:54.537Z,96.81
2022-09-18T07:50:22.084Z,96.05
2022-09-18T07:52:53.478Z,95.28
2022-09-18T07:55:21.243Z,95.79
2022-09-18T07:57:48.709Z,95.03
2022-09-18T08:00:15.856Z,93.90
2022-09-18T08:02:42.475Z,94.31
2022-09-18T08:05:09.549Z,94.77
2022-09-18T08:07:36.774Z,93.40
2022-09-18T08:10:05.578Z,93.68
2022-09-18T08:12:32.394Z,92.69
2022-09-18T08:14:59.311Z,91.32
2022-09-18T08:17:26.400Z,92.19
2022-09-18T08:19:53.592Z,92.60
2022-09-18T08:22:20.197Z,92.11
2022-09-18T08:24:46.748Z,91.29
2022-09-18T08:27:13.277Z,91.27
2022-09-18T08:29:39.851Z,90.71
2022-09-18T08:32:12.084Z,90.12
2022-09-18T08:34:38.664Z,89.97
2022-09-18T08:37:05.240Z,89.54
2022-09-18T08:39:31.801Z,89.12
2022-09-18T08:42:22.778Z,88.73
2022-09-18T08:45:00.560Z,89.15
2022-09-18T08:47:39.299Z,89.53
2022-09-18T08:50:10.053Z,88.20
2022-09-18T08:52:43.043Z,88.25
2022-09-18T08:55:27.741Z,87.25
2022-09-18T08:57:59.105Z,87.29
2022-09-18T09:00:34.798Z,85.87
2022-09-18T09:03:18.137Z,85.55
2022-09-18T09:06:01.725Z,84.83
2022-09-18T09:09:08.615Z,84.44
2022-09-18T09:11:57.089Z,85.99
2022-09-18T09:14:56.787Z,85.01
2022-09-18T09:17:33.082Z,85.70
2022-09-18T09:20:11.685Z,86.17
2022-09-18T09:22:41.225Z,85.83
2022-09-18T09:25:22.785Z,85.15
2022-09-18T09:28:16.282Z,86.08
2022-09-18T09:30:47.198Z,85.93
2022-09-18T09:33:20.599Z,85.29
2022-09-18T09:35:54.469Z,85.89
2022-09-18T09:39:00.836Z,85.85
2022-09-18T09:41:39.581Z,86.59
2022-09-18T09:44:15.053Z,86.67
2022-09-18T09:46:50.787Z,86.78
2022-09-18T09:49:27.353Z,86.27
2022-09-18T09:51:56.880Z,86.58
2022-09-18T09:54:23.594Z,85.94
2022-09-18T09:57:03.327Z,86.16
2022-09-18T10:00:00.306Z,86.59
2022-09-18T10:02:52.030Z,86.70
2022-09-18T10:05:53.756Z,86.33
2022-09-18T10:08:50.445Z,85.87
2022-09-18T10:11:17.566Z,85.77
2022-09-18T10:13:53.737Z,86.36
2022-09-18T10:16:25.814Z,86.56
2022-09-18T10:18:52.469Z,88.02
2022-09-18T10:21:22.248Z,87.35
2022-09-18T10:23:53.408Z,87.84
2022-09-18T10:26:28.463Z,87.53
2022-09-18T10:28:55.331Z,85.74
2022-09-18T10:31:22.268Z,86.27
2022-09-18T10:33:53.144Z,86.10
2022-09-18T10:36:42.772Z,83.32
2022-09-18T10:39:31.239Z,83.14
2022-09-18T10:42:01.703Z,84.22
2022-09-18T10:44:31.234Z,81.79
2022-09-18T10:46:59.902Z,83.11
2022-09-18T10:49:32.221Z,82.59
2022-09-18T10:52:29.827Z,83.93
2022-09-18T10:55:02.588Z,82.38
2022-09-18T10:57:50.773Z,83.86
2022-09-18T11:00:35.129Z,84.78
2022-09-18T11:03:29.007Z,87.11
2022-09-18T11:06:02.032Z,88.21
2022-09-18T11:08:33.863Z,89.32
2022-09-18T11:11:07.497Z,90.98
2022-09-18T11:13:44.926Z,91.79
2022-09-18T11:16:12.429Z,91.99
2022-09-18T11:18:39.394Z,93.72
2022-09-18T11:21:07.577Z,93.62
2022-09-18T11:23:36.850Z,94.60
2022-09-18T11:26:29.577Z,95.53
2022-09-18T11:28:58.852Z,96.35
2022-09-18T11:31:28.259Z,95.97
2022-09-18T11:33:56.851Z,96.75
2022-09-18T11:36:27.413Z,96.74
2022-09-18T11:38:55.165Z,95.29
2022-09-18T11:41:24.836Z,96.63
2022-09-18T11:44:21.874Z,95.55
2022-09-18T11:47:25.688Z,95.65
2022-09-18T11:50:04.071Z,95.84
2022-09-18T11:52:37.466Z,95.31
2022-09-18T11:55:14.371Z,94.91
2022-09-18T11:57:47.457Z,92.19
2022-09-18T12:00:21.741Z,94.15
2022-09-18T12:03:07.209Z,93.58
2022-09-18T12:05:52.284Z,91.83
2022-09-18T12:08:37.063Z,93.27
2022-09-18T12:11:17.742Z,94.28
2022-09-18T12:13:56.388Z,93.95
2022-09-18T12:16:32.935Z,94.31
2022-09-18T12:19:10.144Z,95.82
2022-09-18T12:21:45.247Z,95.55
2022-09-18T12:24:14.219Z,93.95
2022-09-18T12:27:09.165Z,94.05
2022-09-18T12:29:38.607Z,93.53
2022-09-18T12:32:30.012Z,91.89
2022-09-18T12:35:20.929Z,91.64
2022-09-18T12:38:21.156Z,92.13
2022-09-18T12:41:13.081Z,92.96
2022-09-18T12:44:07.618Z,94.32
2022-09-18T12:46:43.401Z,93.19
2022-09-18T12:49:31.798Z,93.65
2022-09-18T12:52:33.018Z,93.42
2022-09-18T12:55:08.813Z,93.20
2022-09-18T12:57:52.057Z,92.07
2022-09-18T13:00:19.121Z,94.30
2022-09-18T13:02:52.446Z,94.34
2022-09-18T13:05:38.817Z,94.27
2022-09-18T13:08:19.105Z,94.48
2022-09-18T13:10:47.635Z,96.33
2022-09-18T13:13:28.223Z,97.27
2022-09-18T13:16:05.238Z,97.42
2022-09-18T13:18:40.882Z,96.39
2022-09-18T13:21:29.875Z,96.80
2022-09-18T13:23:58.681Z,96.88
2022-09-18T13:26:29.576Z,97.71
2022-09-18T13:28:56.365Z,97.43
2022-09-18T13:31:35.111Z,97.20
2022-09-18T13:34:18.261Z,97.67
2022-09-18T13:36:46.812Z,98.20
2022-09-18T13:39:23.492Z,97.66
2022-09-18T13:41:53.435Z,96.72
2022-09-18T13:44:29.016Z,96.49
2022-09-18T13:46:59.617Z,96.06
2022-09-18T13:49:36.630Z,96.51
2022-09-18T13:52:34.219Z,97.25
2022-09-18T13:55:12.732Z,97.15
2022-09-18T13:57:41.343Z,97.05
2022-09-18T14:00:20.157Z,97.74
2022-09-18T14:02:51.726Z,97.58
2022-09-18T14:05:31.760Z,97.04
2022-09-18T14:08:04.618Z,97.02
2022-09-18T14:10:36.406Z,96.52
2022-09-18T14:13:12.159Z,96.03
2022-09-18T14:15:38.899Z,97.20
2022-09-18T14:18:17.369Z,97.03
2022-09-18T14:20:53.531Z,97.45
2022-09-18T14:23:40.839Z,98.13
2022-09-18T14:26:28.491Z,97.68
2022-09-18T14:29:04.063Z,98.94
2022-09-18T14:31:35.623Z,99.26
2022-09-18T14:34:12.500Z,98.74
2022-09-18T14:36:50.445Z,98.62
2022-09-18T14:39:34.255Z,99.42
2022-09-18T14:42:03.925Z,98.97
2022-09-18T14:44:32.738Z,99.36
2022-09-18T14:47:00.477Z,98.83
2022-09-18T14:49:34.224Z,99.14
2022-09-18T14:52:04.260Z,99.94
2022-09-18T14:54:31.495Z,100.00
2022-09-18T14:57:02.839Z,100.00
2022-09-18T14:59:29.588Z,99.59
2022-09-18T15:02:20.511Z,99.23
2022-09-18T15:04:47.244Z,98.77
2022-09-18T15:07:19.757Z,98.22
2022-09-18T15:09:52.968Z,97.87
2022-09-18T15:12:22.846Z,95.97
2022-09-18T15:14:49.757Z,96.16
2022-09-18T15:17:28.029Z,96.25
2022-09-18T15:20:09.404Z,96.40
2022-09-18T15:22:36.043Z,96.59
2022-09-18T15:25:02.688Z,96.84
2022-09-18T15:27:31.181Z,97.49
2022-09-18T15:30:02.049Z,96.93
2022-09-18T15:32:38.147Z,95.92
2022-09-18T15:35:08.675Z,95.71
2022-09-18T15:37:38.375Z,95.29
2022-09-18T15:40:09.085Z,97.16
2022-09-18T15:42:39.111Z,97.87
2022-09-18T15:45:05.620Z,99.35
2022-09-18T15:47:39.416Z,98.44
2022-09-18T15:50:11.930Z,97.88
2022-09-18T15:52:42.795Z,96.41
2022-09-18T15:55:18.301Z,96.06
2022-09-18T15:57:49.728Z,95.64
2022-09-18T16:00:22.612Z,97.38
2022-09-18T16:02:54.642Z,97.92
2022-09-18T16:05:22.129Z,99.02
2022-09-18T16:07:57.608Z,98.88
2022-09-18T16:10:37.134Z,99.39
2022-09-18T16:13:04.828Z,99.79
2022-09-18T16:15:31.853Z,99.42
2022-09-18T16:18:03.960Z,99.11
2022-09-18T16:20:42.505Z,99.00
2022-09-18T16:23:28.453Z,99.81
2022-09-18T16:26:11.681Z,99.58
2022-09-18T16:28:57.635Z,100.00
2022-09-18T16:31:26.835Z,100.00
2022-09-18T16:34:02.441Z,100.00
2022-09-18T16:36:37.219Z,100.00
2022-09-18T16:39:11.491Z,100.00
2022-09-18T16:41:38.185Z,100.00
2022-09-18T16:44:06.523Z,100.00
2022-09-18T16:47:00.459Z,100.00
2022-09-18T16:49:32.802Z,97.41
2022-09-18T16:51:59.397Z,97.26
2022-09-18T16:54:26.156Z,96.69
2022-09-18T16:57:05.906Z,97.29
2022-09-18T16:59:33.514Z,96.59
2022-09-18T17:02:05.167Z,96.87
2022-09-18T17:04:32.803Z,96.75
2022-09-18T17:06:59.551Z,97.27
2022-09-18T17:09:26.655Z,97.23
2022-09-18T17:11:54.442Z,98.55
2022-09-18T17:14:22.212Z,98.72
2022-09-18T17:16:48.846Z,98.82
2022-09-18T17:19:15.742Z,99.06
2022-09-18T17:21:42.705Z,98.14
2022-09-18T17:24:10.176Z,98.03
2022-09-18T17:26:38.114Z,97.94
2022-09-18T17:29:05.014Z,97.89
2022-09-18T17:31:31.679Z,97.34
2022-09-18T17:33:58.308Z,97.43
2022-09-18T17:36:25.131Z,97.17
2022-09-18T17:38:51.984Z,97.68
2022-09-18T17:41:19.739Z,97.22
2022-09-18T17:43:52.042Z,97.56
2022-09-18T17:46:18.733Z,97.41
2022-09-18T17:48:46.084Z,97.70
2022-09-18T17:51:16.682Z,96.88
2022-09-18T17:53:44.696Z,96.82
2022-09-18T17:56:12.808Z,97.04
2022-09-18T17:58:41.388Z,97.25
2022-09-18T18:01:15.996Z,97.48
2022-09-18T18:03:42.914Z,97.00
2022-09-18T18:06:11.109Z,96.87
2022-09-18T18:08:37.931Z,97.01
2022-09-18T18:11:10.863Z,96.37
2022-09-18T18:13:42.495Z,96.58
2022-09-18T18:16:15.031Z,96.75
2022-09-18T18:18:43.277Z,97.19
2022-09-18T18:21:10.889Z,97.43
2022-09-18T18:23:38.524Z,96.73
2022-09-18T18:26:07.207Z,95.94
2022-09-18T18:28:35.131Z,96.11
2022-09-18T18:31:07.651Z,96.01
2022-09-18T18:33:36.025Z,96.08
2022-09-18T18:36:19.860Z,95.46
2022-09-18T18:38:49.120Z,95.29
2022-09-18T18:41:17.111Z,93.51
2022-09-18T18:43:44.750Z,94.24
2022-09-18T18:46:14.029Z,93.88
2022-09-18T18:48:44.168Z,93.82
2022-09-18T18:51:15.961Z,92.98
2022-09-18T18:53:43.711Z,93.31
2022-09-18T18:56:16.198Z,92.78
2022-09-18T18:58:44.168Z,92.38
2022-09-18T19:01:16.390Z,92.77
2022-09-18T19:03:52.684Z,92.83
2022-09-18T19:06:20.344Z,92.60
2022-09-18T19:08:47.815Z,92.61
2022-09-18T19:11:17.198Z,92.61
2022-09-18T19:13:44.711Z,92.19
2022-09-18T19:16:13.031Z,92.69
2022-09-18T19:18:40.259Z,92.46
2022-09-18T19:21:07.542Z,92.33
2022-09-18T19:23:35.512Z,92.52
2022-09-18T19:26:02.731Z,93.03
2022-09-18T19:28:30.500Z,93.00
2022-09-18T19:31:04.417Z,92.97
2022-09-18T19:33:32.401Z,93.07
2022-09-18T19:36:06.838Z,92.82
2022-09-18T19:38:36.353Z,93.58
2022-09-18T19:41:20.624Z,93.49
2022-09-18T19:43:47.559Z,94.04
2022-09-18T19:46:24.145Z,94.54
2022-09-18T19:48:51.472Z,94.88
2022-09-18T19:51:18.152Z,95.28
2022-09-18T19:53:44.926Z,95.36
2022-09-18T19:56:27.466Z,94.85
2022-09-18T19:58:58.228Z,95.22
2022-09-18T20:01:24.836Z,94.81
2022-09-18T20:03:54.967Z,95.12
2022-09-18T20:06:23.004Z,95.08
2022-09-18T20:08:50.078Z,94.84
2022-09-18T20:11:16.730Z,95.31
2022-09-18T20:13:43.325Z,95.28
2022-09-18T20:16:10.885Z,95.64
2022-09-18T20:18:38.334Z,94.98
2022-09-18T20:21:10.143Z,95.29
2022-09-18T20:23:37.880Z,95.26
2022-09-18T20:26:09.425Z,95.25
2022-09-18T20:28:36.868Z,95.38
2022-09-18T20:31:08.707Z,95.59
2022-09-18T20:33:36.222Z,96.20
2022-09-18T20:36:03.131Z,95.27
2022-09-18T20:38:31.241Z,95.74
2022-09-18T20:41:06.553Z,95.24
2022-09-18T20:43:34.160Z,95.44
2022-09-18T20:46:06.713Z,95.78
2022-09-18T20:48:35.751Z,95.45
2022-09-18T20:51:09.284Z,95.29
2022-09-18T20:53:41.792Z,95.15
2022-09-18T20:56:10.776Z,95.36
2022-09-18T20:58:42.130Z,95.27
2022-09-18T21:01:11.381Z,95.25
2022-09-18T21:03:40.746Z,95.01
2022-09-18T21:06:23.554Z,94.78
2022-09-18T21:08:53.348Z,94.34
2022-09-18T21:11:23.575Z,94.77
2022-09-18T21:13:55.805Z,94.36
2022-09-18T21:16:26.006Z,94.56
2022-09-18T21:18:56.308Z,94.20
2022-09-18T21:21:24.835Z,94.11
2022-09-18T21:23:54.438Z,94.42
2022-09-18T21:26:25.682Z,94.42
2022-09-18T21:28:55.439Z,94.71
2022-09-18T21:31:23.039Z,94.72
2022-09-18T21:33:53.059Z,95.20
2022-09-18T21:36:24.465Z,94.93
2022-09-18T21:38:52.599Z,95.79
2022-09-18T21:41:21.406Z,95.85
2022-09-18T21:43:50.681Z,96.05
2022-09-18T21:46:19.448Z,96.76
2022-09-18T21:48:47.663Z,96.52
